createdAt,value
2022-09-03T00:00:04.396Z,100646.95
2022-09-03T00:03:05.570Z,100649.41
2022-09-03T00:05:42.627Z,100647.19
2022-09-03T00:08:23.311Z,100649.40
2022-09-03T00:11:00.512Z,100649.38
2022-09-03T00:13:37.707Z,100649.20
2022-09-03T00:16:14.132Z,100650.41
2022-09-03T00:18:49.847Z,100652.11
2022-09-03T00:21:39.920Z,100647.73
2022-09-03T00:24:15.990Z,100650.48
2022-09-03T00:26:54.654Z,100646.92
2022-09-03T00:29:34.052Z,100646.45
2022-09-03T00:32:14.102Z,100646.88
2022-09-03T00:34:50.985Z,100644.98
2022-09-03T00:37:21.281Z,100646.20
2022-09-03T00:39:53.275Z,100647.40
2022-09-03T00:42:43.535Z,100642.79
2022-09-03T00:45:28.269Z,100644.59
2022-09-03T00:48:12.779Z,100646.91
2022-09-03T00:51:06.824Z,100647.18
2022-09-03T00:53:51.499Z,100652.52
2022-09-03T00:56:36.251Z,100653.51
2022-09-03T00:59:23.064Z,100655.86
2022-09-03T01:02:06.409Z,100659.41
2022-09-03T01:04:53.416Z,100657.92
2022-09-03T01:07:35.410Z,100661.02
2022-09-03T01:10:17.823Z,100658.36
2022-09-03T01:13:00.972Z,100656.29
2022-09-03T01:15:42.678Z,100657.42
2022-09-03T01:18:24.178Z,100663.23
2022-09-03T01:21:14.198Z,100660.27
2022-09-03T01:24:13.181Z,100657.71
2022-09-03T01:27:01.275Z,100659.21
2022-09-03T01:29:40.500Z,100655.23
2022-09-03T01:32:18.181Z,100651.39
2022-09-03T01:34:58.553Z,100657.81
2022-09-03T01:37:43.125Z,100659.48
2022-09-03T01:40:25.938Z,100657.64
2022-09-03T01:43:12.733Z,100655.14
2022-09-03T01:46:00.521Z,100653.89
2022-09-03T01:48:44.698Z,100655.49
2022-09-03T01:51:25.282Z,100656.11
2022-09-03T01:54:18.008Z,100650.45
2022-09-03T01:57:34.797Z,100649.40
2022-09-03T02:00:10.402Z,100653.15
2022-09-03T02:02:48.085Z,100649.76
2022-09-03T02:05:22.945Z,100644.47
2022-09-03T02:08:01.094Z,100640.54
2022-09-03T02:10:39.551Z,100645.79
2022-09-03T02:13:14.877Z,100643.41
2022-09-03T02:15:50.726Z,100639.59
2022-09-03T02:18:27.379Z,100639.08
2022-09-03T02:21:01.732Z,100633.38
2022-09-03T02:23:33.859Z,100632.67
2022-09-03T02:26:08.123Z,100634.77
2022-09-03T02:28:40.253Z,100633.73
2022-09-03T02:31:12.313Z,100634.62
2022-09-03T02:33:47.904Z,100633.92
2022-09-03T02:36:27.653Z,100634.84
2022-09-03T02:38:59.799Z,100634.71
2022-09-03T02:41:31.932Z,100635.17
2022-09-03T02:44:10.713Z,100637.88
2022-09-03T02:46:45.533Z,100639.87
2022-09-03T02:49:17.961Z,100637.33
2022-09-03T02:51:50.212Z,100634.94
2022-09-03T02:54:22.145Z,100636.90
2022-09-03T02:56:54.724Z,100634.71
2022-09-03T02:59:28.332Z,100635.48
2022-09-03T03:02:01.233Z,100632.08
2022-09-03T03:04:34.734Z,100630.55
2022-09-03T03:07:06.925Z,100629.56
2022-09-03T03:09:38.759Z,100628.92
2022-09-03T03:12:11.047Z,100626.77
2022-09-03T03:14:43.165Z,100626.02
2022-09-03T03:17:15.308Z,100630.37
2022-09-03T03:19:47.216Z,100628.86
2022-09-03T03:22:19.241Z,100632.60
2022-09-03T03:24:52.820Z,100634.73
2022-09-03T03:27:25.092Z,100633.89
2022-09-03T03:29:58.241Z,100635.71
2022-09-03T03:32:30.869Z,100633.12
2022-09-03T03:35:02.857Z,100634.38
2022-09-03T03:37:35.705Z,100646.67
2022-09-03T03:40:10.841Z,100649.85
2022-09-03T03:42:43.470Z,100651.98
2022-09-03T03:45:15.383Z,100650.32
2022-09-03T03:47:47.275Z,100649.53
2022-09-03T03:50:19.748Z,100650.61
2022-09-03T03:52:52.252Z,100653.08
2022-09-03T03:55:25.260Z,100655.58
2022-09-03T03:57:59.899Z,100650.87
2022-09-03T04:00:31.736Z,100652.17
2022-09-03T04:03:03.652Z,100652.94
2022-09-03T04:05:35.497Z,100654.63
2022-09-03T04:08:08.153Z,100659.58
2022-09-03T04:10:40.165Z,100657.35
2022-09-03T04:13:12.172Z,100653.88
2022-09-03T04:15:44.548Z,100652.64
2022-09-03T04:18:16.425Z,100655.75
2022-09-03T04:20:48.353Z,100655.55
2022-09-03T04:23:20.451Z,100656.59
2022-09-03T04:25:56.486Z,100661.08
2022-09-03T04:28:28.837Z,100662.61
2022-09-03T04:31:05.770Z,100662.08
2022-09-03T04:33:40.109Z,100656.25
2022-09-03T04:36:14.685Z,100652.48
2022-09-03T04:38:48.145Z,100648.76
2022-09-03T04:41:23.121Z,100650.42
2022-09-03T04:43:57.026Z,100652.34
2022-09-03T04:46:33.715Z,100643.55
2022-09-03T04:49:07.310Z,100643.05
2022-09-03T04:51:39.415Z,100647.14
2022-09-03T04:54:12.091Z,100648.31
2022-09-03T04:56:44.011Z,100651.02
2022-09-03T04:59:15.927Z,100657.56
2022-09-03T05:01:47.891Z,100662.53
2022-09-03T05:04:20.367Z,100662.17
2022-09-03T05:06:52.271Z,100659.52
2022-09-03T05:09:24.367Z,100655.70
2022-09-03T05:11:56.323Z,100654.71
2022-09-03T05:14:28.259Z,100656.59
2022-09-03T05:17:00.337Z,100655.73
2022-09-03T05:19:32.640Z,100653.65
2022-09-03T05:22:04.516Z,100651.36
2022-09-03T05:24:36.328Z,100651.49
2022-09-03T05:27:08.294Z,100654.70
2022-09-03T05:29:40.241Z,100653.27
2022-09-03T05:32:12.760Z,100654.35
2022-09-03T05:34:44.631Z,100653.27
2022-09-03T05:37:16.595Z,100651.20
2022-09-03T05:39:48.561Z,100653.42
2022-09-03T05:42:20.554Z,100651.46
2022-09-03T05:44:52.731Z,100650.62
2022-09-03T05:47:24.707Z,100648.75
2022-09-03T05:49:57.163Z,100648.59
2022-09-03T05:52:30.991Z,100646.39
2022-09-03T05:55:03.400Z,100644.98
2022-09-03T05:57:36.218Z,100639.19
2022-09-03T06:00:12.037Z,100638.40
2022-09-03T06:02:51.371Z,100633.81
2022-09-03T06:05:23.350Z,100634.08
2022-09-03T06:07:56.033Z,100630.63
2022-09-03T06:10:34.459Z,100636.62
2022-09-03T06:13:10.688Z,100632.63
2022-09-03T06:15:42.599Z,100631.80
2022-09-03T06:18:14.507Z,100631.92
2022-09-03T06:20:54.718Z,100631.98
2022-09-03T06:23:28.128Z,100627.59
2022-09-03T06:26:08.572Z,100623.66
2022-09-03T06:28:43.545Z,100620.98
2022-09-03T06:31:17.229Z,100616.09
2022-09-03T06:33:50.088Z,100616.38
2022-09-03T06:36:23.817Z,100622.05
2022-09-03T06:38:57.498Z,100628.20
2022-09-03T06:41:32.641Z,100632.27
2022-09-03T06:44:06.533Z,100632.34
2022-09-03T06:46:42.355Z,100633.20
2022-09-03T06:49:14.717Z,100632.74
2022-09-03T06:51:46.594Z,100634.13
2022-09-03T06:54:18.420Z,100633.29
2022-09-03T06:56:50.477Z,100626.12
2022-09-03T06:59:22.376Z,100625.79
2022-09-03T07:01:55.410Z,100628.20
2022-09-03T07:04:28.442Z,100630.05
2022-09-03T07:07:01.139Z,100627.79
2022-09-03T07:09:36.262Z,100629.80
2022-09-03T07:12:11.130Z,100633.77
2022-09-03T07:14:42.963Z,100628.77
2022-09-03T07:17:15.046Z,100624.33
2022-09-03T07:19:47.051Z,100627.41
2022-09-03T07:22:18.902Z,100634.32
2022-09-03T07:24:52.416Z,100635.61
2022-09-03T07:27:24.585Z,100633.63
2022-09-03T07:29:56.670Z,100637.05
2022-09-03T07:32:32.419Z,100641.11
2022-09-03T07:35:05.073Z,100648.72
2022-09-03T07:37:38.596Z,100647.24
2022-09-03T07:40:12.251Z,100651.34
2022-09-03T07:42:44.157Z,100649.18
2022-09-03T07:45:16.254Z,100648.89
2022-09-03T07:47:52.036Z,100645.52
2022-09-03T07:50:24.075Z,100642.73
2022-09-03T07:53:00.475Z,100645.28
2022-09-03T07:55:32.481Z,100643.39
2022-09-03T07:58:07.462Z,100643.11
2022-09-03T08:00:39.630Z,100645.31
2022-09-03T08:03:13.312Z,100646.65
2022-09-03T08:05:45.409Z,100650.63
2022-09-03T08:08:18.001Z,100651.27
2022-09-03T08:10:51.702Z,100650.00
2022-09-03T08:13:23.569Z,100650.83
2022-09-03T08:16:01.482Z,100648.80
2022-09-03T08:18:37.763Z,100645.94
2022-09-03T08:21:12.427Z,100639.08
2022-09-03T08:23:46.007Z,100638.33
2022-09-03T08:26:19.131Z,100643.84
2022-09-03T08:28:53.707Z,100645.56
2022-09-03T08:31:27.950Z,100647.14
2022-09-03T08:34:07.016Z,100644.36
2022-09-03T08:36:41.312Z,100639.39
2022-09-03T08:39:14.578Z,100639.05
2022-09-03T08:42:12.013Z,100636.75
2022-09-03T08:44:48.090Z,100635.63
2022-09-03T08:47:24.759Z,100637.13
2022-09-03T08:50:01.246Z,100628.46
2022-09-03T08:52:38.525Z,100631.42
2022-09-03T08:55:21.801Z,100629.30
2022-09-03T08:57:58.463Z,100625.64
2022-09-03T09:00:43.359Z,100624.73
2022-09-03T09:03:36.204Z,100622.31
2022-09-03T09:06:18.662Z,100624.06
2022-09-03T09:09:04.577Z,100620.20
2022-09-03T09:11:48.036Z,100618.77
2022-09-03T09:14:25.920Z,100617.79
2022-09-03T09:17:04.245Z,100619.23
2022-09-03T09:19:45.436Z,100621.23
2022-09-03T09:22:25.593Z,100619.66
2022-09-03T09:25:00.415Z,100621.04
2022-09-03T09:27:33.696Z,100618.56
2022-09-03T09:30:08.434Z,100619.70
2022-09-03T09:32:40.453Z,100620.64
2022-09-03T09:35:13.334Z,100619.83
2022-09-03T09:37:53.622Z,100622.85
2022-09-03T09:40:35.830Z,100619.23
2022-09-03T09:43:10.985Z,100616.27
2022-09-03T09:45:45.584Z,100620.77
2022-09-03T09:48:31.504Z,100620.50
2022-09-03T09:51:13.073Z,100618.34
2022-09-03T09:53:46.138Z,100612.98
2022-09-03T09:56:26.614Z,100612.71
2022-09-03T09:59:08.411Z,100609.63
2022-09-03T10:01:42.615Z,100614.34
2022-09-03T10:04:24.502Z,100612.24
2022-09-03T10:07:01.614Z,100612.12
2022-09-03T10:09:34.831Z,100618.36
2022-09-03T10:12:19.798Z,100620.86
2022-09-03T10:14:56.862Z,100617.98
2022-09-03T10:17:36.906Z,100615.84
2022-09-03T10:20:31.069Z,100618.33
2022-09-03T10:23:11.191Z,100605.11
2022-09-03T10:25:53.801Z,100606.07
2022-09-03T10:28:30.412Z,100609.16
2022-09-03T10:31:36.865Z,100604.24
2022-09-03T10:34:16.941Z,100598.80
2022-09-03T10:36:55.861Z,100602.52
2022-09-03T10:39:42.998Z,100603.84
2022-09-03T10:42:33.558Z,100588.84
2022-09-03T10:45:17.220Z,100583.98
2022-09-03T10:48:25.864Z,100594.20
2022-09-03T10:51:04.290Z,100588.33
2022-09-03T10:54:03.830Z,100584.07
2022-09-03T10:56:43.176Z,100585.42
2022-09-03T10:59:34.747Z,100585.13
2022-09-03T11:02:22.913Z,100578.83
2022-09-03T11:05:03.099Z,100576.07
2022-09-03T11:07:44.222Z,100574.29
2022-09-03T11:10:20.869Z,100573.44
2022-09-03T11:13:03.306Z,100574.83
2022-09-03T11:15:39.740Z,100572.98
2022-09-03T11:18:17.187Z,100574.71
2022-09-03T11:20:54.000Z,100576.14
2022-09-03T11:23:29.415Z,100577.27
2022-09-03T11:26:06.889Z,100565.61
2022-09-03T11:28:45.217Z,100564.48
2022-09-03T11:31:26.748Z,100561.18
2022-09-03T11:34:06.380Z,100561.67
2022-09-03T11:36:45.900Z,100562.95
2022-09-03T11:39:28.071Z,100560.01
2022-09-03T11:42:07.210Z,100560.40
2022-09-03T11:44:51.429Z,100557.12
2022-09-03T11:47:38.478Z,100561.29
2022-09-03T11:50:21.257Z,100558.17
2022-09-03T11:52:56.988Z,100553.02
2022-09-03T11:55:43.277Z,100555.00
2022-09-03T11:58:22.644Z,100554.82
2022-09-03T12:00:55.217Z,100554.52
2022-09-03T12:03:30.779Z,100550.15
2022-09-03T12:06:22.442Z,100547.45
2022-09-03T12:09:22.281Z,100542.23
2022-09-03T12:12:05.567Z,100548.27
2022-09-03T12:14:48.279Z,100542.34
2022-09-03T12:17:29.449Z,100542.71
2022-09-03T12:20:02.185Z,100535.66
2022-09-03T12:22:39.688Z,100530.23
2022-09-03T12:25:13.969Z,100525.30
2022-09-03T12:27:49.439Z,100517.11
2022-09-03T12:30:23.577Z,100519.48
2022-09-03T12:33:06.913Z,100517.30
2022-09-03T12:38:44.500Z,100511.73
2022-09-03T12:41:37.948Z,100513.86
2022-09-03T12:44:11.693Z,100514.90
2022-09-03T12:46:43.733Z,100507.52
2022-09-03T12:49:33.683Z,100508.27
2022-09-03T12:52:15.612Z,100509.39
2022-09-03T12:54:54.587Z,100505.89
2022-09-03T12:57:33.021Z,100494.70
2022-09-03T13:00:08.485Z,100498.33
2022-09-03T13:02:47.977Z,100495.83
2022-09-03T13:05:22.824Z,100489.48
2022-09-03T13:07:59.489Z,100488.79
2022-09-03T13:10:33.194Z,100498.86
2022-09-03T13:13:17.231Z,100498.04
2022-09-03T13:16:06.414Z,100489.54
2022-09-03T13:18:45.560Z,100484.33
2022-09-03T13:21:30.743Z,100477.63
2022-09-03T13:24:30.131Z,100472.83
2022-09-03T13:27:18.239Z,100469.98
2022-09-03T13:30:03.887Z,100472.19
2022-09-03T13:32:51.193Z,100474.47
2022-09-03T13:35:32.515Z,100472.91
2022-09-03T13:38:14.726Z,100471.86
2022-09-03T13:40:51.718Z,100468.96
2022-09-03T13:43:27.515Z,100471.68
2022-09-03T13:46:04.471Z,100472.36
2022-09-03T13:48:58.430Z,100474.71
2022-09-03T13:51:37.758Z,100465.98
2022-09-03T13:54:36.566Z,100465.05
2022-09-03T13:57:30.678Z,100465.30
2022-09-03T14:00:08.189Z,100465.52
2022-09-03T14:02:53.135Z,100464.02
2022-09-03T14:05:42.633Z,100462.41
2022-09-03T14:08:25.676Z,100462.52
2022-09-03T14:11:10.657Z,100463.89
2022-09-03T14:13:58.749Z,100467.31
2022-09-03T14:16:38.684Z,100470.83
2022-09-03T14:19:18.472Z,100469.83
2022-09-03T14:21:56.513Z,100467.41
2022-09-03T14:24:41.105Z,100466.39
2022-09-03T14:27:15.041Z,100469.80
2022-09-03T14:30:00.596Z,100468.70
2022-09-03T14:32:42.421Z,100466.89
2022-09-03T14:35:25.217Z,100463.91
2022-09-03T14:38:16.092Z,100466.65
2022-09-03T14:40:51.745Z,100463.73
2022-09-03T14:43:49.705Z,100461.23
2022-09-03T14:46:42.523Z,100459.68
2022-09-03T14:49:39.875Z,100457.23
2022-09-03T14:52:26.576Z,100459.95
2022-09-03T14:55:21.748Z,100459.88
2022-09-03T14:58:14.578Z,100459.06
2022-09-03T15:00:55.861Z,100461.74
2022-09-03T15:03:55.009Z,100458.61
2022-09-03T15:06:45.005Z,100456.13
2022-09-03T15:09:28.800Z,100458.21
2022-09-03T15:12:07.537Z,100455.94
2022-09-03T15:14:51.031Z,100454.86
2022-09-03T15:17:48.568Z,100456.10
2022-09-03T15:20:27.965Z,100452.88
2022-09-03T15:23:25.095Z,100450.89
2022-09-03T15:26:22.701Z,100452.79
2022-09-03T15:29:13.529Z,100453.11
2022-09-03T15:31:57.959Z,100458.85
2022-09-03T15:34:51.233Z,100459.55
2022-09-03T15:37:28.581Z,100456.14
2022-09-03T15:40:08.303Z,100454.55
2022-09-03T15:42:44.513Z,100455.48
2022-09-03T15:45:27.393Z,100455.36
2022-09-03T15:48:09.390Z,100454.48
2022-09-03T15:50:54.524Z,100462.95
2022-09-03T15:53:35.266Z,100462.95
2022-09-03T15:56:16.155Z,100463.40
2022-09-03T15:58:57.160Z,100464.48
2022-09-03T16:01:39.196Z,100466.13
2022-09-03T16:04:24.847Z,100465.45
2022-09-03T16:07:03.413Z,100469.59
2022-09-03T16:10:07.623Z,100471.66
2022-09-03T16:12:51.727Z,100468.00
2022-09-03T16:15:28.364Z,100468.70
2022-09-03T16:18:08.083Z,100469.52
2022-09-03T16:20:45.110Z,100471.73
2022-09-03T16:23:22.859Z,100472.51
2022-09-03T16:26:04.043Z,100477.32
2022-09-03T16:28:44.475Z,100474.31
2022-09-03T16:31:29.845Z,100470.46
2022-09-03T16:34:17.957Z,100472.84
2022-09-03T16:36:59.288Z,100473.10
2022-09-03T16:39:43.097Z,100471.92
2022-09-03T16:42:24.960Z,100472.83
2022-09-03T16:45:06.740Z,100471.10
2022-09-03T16:47:50.186Z,100476.45
2022-09-03T16:50:34.628Z,100473.23
2022-09-03T16:53:15.307Z,100474.11
2022-09-03T16:56:09.509Z,100477.13
2022-09-03T16:58:55.174Z,100478.31
2022-09-03T17:01:45.879Z,100483.25
2022-09-03T17:04:49.635Z,100483.92
2022-09-03T17:07:38.034Z,100488.54
2022-09-03T17:10:27.443Z,100489.51
2022-09-03T17:13:22.857Z,100490.70
2022-09-03T17:16:05.684Z,100493.43
2022-09-03T17:18:51.259Z,100493.08
2022-09-03T17:21:37.133Z,100496.06
2022-09-03T17:24:36.180Z,100498.41
2022-09-03T17:27:29.553Z,100498.80
2022-09-03T17:30:10.504Z,100502.66
2022-09-03T17:33:01.829Z,100506.39
2022-09-03T17:35:43.047Z,100511.60
2022-09-03T17:38:32.399Z,100515.56
2022-09-03T17:41:17.116Z,100517.62
2022-09-03T17:43:58.678Z,100520.79
2022-09-03T17:46:44.043Z,100521.46
2022-09-03T17:49:22.745Z,100523.11
2022-09-03T17:52:05.381Z,100528.98
2022-09-03T17:54:43.850Z,100533.29
2022-09-03T17:57:24.722Z,100538.31
2022-09-03T18:00:02.352Z,100538.48
2022-09-03T18:02:44.707Z,100536.65
2022-09-03T18:05:23.781Z,100538.45
2022-09-03T18:08:00.557Z,100538.38
2022-09-03T18:10:33.873Z,100540.09
2022-09-03T18:13:23.750Z,100538.61
2022-09-03T18:16:02.309Z,100533.05
2022-09-03T18:18:38.230Z,100533.56
2022-09-03T18:21:31.890Z,100532.68
2022-09-03T18:24:30.070Z,100533.27
2022-09-03T18:27:23.592Z,100532.82
2022-09-03T18:30:20.144Z,100534.66
2022-09-03T18:33:09.505Z,100538.38
2022-09-03T18:36:02.037Z,100537.39
2022-09-03T18:38:53.528Z,100535.87
2022-09-03T18:41:59.574Z,100534.75
2022-09-03T18:45:21.025Z,100530.16
2022-09-03T18:48:26.452Z,100529.39
2022-09-03T18:51:22.457Z,100535.48
2022-09-03T18:54:24.612Z,100529.55
2022-09-03T18:57:15.032Z,100535.28
2022-09-03T19:00:30.538Z,100537.89
2022-09-03T19:03:37.642Z,100539.11
2022-09-03T19:06:37.485Z,100535.84
2022-09-03T19:09:36.103Z,100537.25
2022-09-03T19:12:39.286Z,100537.38
2022-09-03T19:15:38.828Z,100539.11
2022-09-03T19:18:47.435Z,100539.22
2022-09-03T19:21:47.432Z,100540.27
2022-09-03T19:24:44.764Z,100543.14
2022-09-03T19:27:54.288Z,100545.40
2022-09-03T19:30:57.035Z,100545.45
2022-09-03T19:33:56.839Z,100540.80
2022-09-03T19:36:56.476Z,100540.94
2022-09-03T19:40:04.108Z,100543.38
2022-09-03T19:43:07.313Z,100548.36
2022-09-03T19:46:08.740Z,100556.05
2022-09-03T19:49:18.748Z,100552.75
2022-09-03T19:52:16.816Z,100556.19
2022-09-03T19:55:11.930Z,100558.31
2022-09-03T19:58:05.967Z,100560.89
2022-09-03T20:01:03.376Z,100565.92
2022-09-03T20:03:53.498Z,100560.88
2022-09-03T20:06:43.036Z,100561.02
2022-09-03T20:09:37.222Z,100561.63
2022-09-03T20:12:10.935Z,100559.40
2022-09-03T20:14:42.903Z,100557.48
2022-09-03T20:17:25.100Z,100558.05
2022-09-03T20:20:10.870Z,100562.18
2022-09-03T20:22:52.663Z,100560.90
2022-09-03T20:25:44.911Z,100560.11
2022-09-03T20:28:28.925Z,100560.89
2022-09-03T20:31:11.182Z,100560.90
2022-09-03T20:33:54.695Z,100560.91
2022-09-03T20:36:35.639Z,100567.44
2022-09-03T20:39:22.983Z,100567.25
2022-09-03T20:41:57.862Z,100570.16
2022-09-03T20:44:52.359Z,100570.99
2022-09-03T20:47:48.671Z,100578.40
2022-09-03T20:50:33.909Z,100583.86
2022-09-03T20:53:19.309Z,100578.15
2022-09-03T20:55:55.340Z,100575.84
2022-09-03T20:58:37.493Z,100578.13
2022-09-03T21:01:13.863Z,100579.58
2022-09-03T21:03:54.202Z,100580.44
2022-09-03T21:06:34.771Z,100578.83
2022-09-03T21:09:27.483Z,100582.84
2022-09-03T21:12:07.079Z,100582.45
2022-09-03T21:14:44.743Z,100581.78
2022-09-03T21:17:32.114Z,100585.80
2022-09-03T21:20:18.674Z,100589.51
2022-09-03T21:23:13.483Z,100596.73
2022-09-03T21:25:52.897Z,100595.30
2022-09-03T21:28:30.695Z,100596.23
2022-09-03T21:31:08.923Z,100595.23
2022-09-03T21:33:45.791Z,100595.65
2022-09-03T21:36:22.239Z,100596.23
2022-09-03T21:39:01.149Z,100599.27
2022-09-03T21:41:38.367Z,100596.52
2022-09-03T21:44:18.894Z,100599.55
2022-09-03T21:46:55.910Z,100595.05
2022-09-03T21:49:33.865Z,100603.20
2022-09-03T21:52:12.349Z,100600.09
2022-09-03T21:54:44.963Z,100600.52
2022-09-03T21:57:24.286Z,100604.29
2022-09-03T22:00:20.660Z,100599.30
2022-09-03T22:02:56.902Z,100602.48
2022-09-03T22:05:34.210Z,100607.42
2022-09-03T22:08:17.473Z,100610.43
2022-09-03T22:11:05.133Z,100613.98
2022-09-03T22:13:45.877Z,100610.64
2022-09-03T22:16:23.410Z,100612.83
2022-09-03T22:18:56.688Z,100611.84
2022-09-03T22:21:34.042Z,100613.01
2022-09-03T22:24:23.380Z,100616.75
2022-09-03T22:27:00.811Z,100619.14
2022-09-03T22:29:42.163Z,100622.50
2022-09-03T22:32:25.420Z,100621.45
2022-09-03T22:35:23.950Z,100624.64
2022-09-03T22:38:10.406Z,100626.77
2022-09-03T22:40:49.117Z,100627.84
2022-09-03T22:43:39.203Z,100629.36
2022-09-03T22:46:14.007Z,100633.80
2022-09-03T22:49:10.873Z,100635.45
2022-09-03T22:52:02.650Z,100635.34
2022-09-03T22:54:54.081Z,100632.83
2022-09-03T22:57:29.190Z,100634.82
2022-09-03T23:00:06.539Z,100634.73
2022-09-03T23:02:41.287Z,100637.94
2022-09-03T23:05:26.463Z,100633.02
2022-09-03T23:08:06.317Z,100633.96
2022-09-03T23:10:53.732Z,100633.70
2022-09-03T23:13:30.153Z,100636.23
2022-09-03T23:16:09.256Z,100637.53
2022-09-03T23:18:45.569Z,100643.70
2022-09-03T23:21:25.730Z,100644.98
2022-09-03T23:24:03.809Z,100646.34
2022-09-03T23:26:42.670Z,100653.30
2022-09-03T23:29:20.597Z,100652.58
2022-09-03T23:31:53.154Z,100656.55
2022-09-03T23:34:25.771Z,100658.31
2022-09-03T23:37:33.044Z,100660.61
2022-09-03T23:40:28.689Z,100665.64
2022-09-03T23:43:16.112Z,100671.34
2022-09-03T23:45:49.928Z,100670.84
2022-09-03T23:48:31.248Z,100668.73
2022-09-03T23:51:15.537Z,100674.44
2022-09-03T23:54:01.065Z,100675.49
2022-09-03T23:57:02.147Z,100672.69
2022-09-03T23:59:52.576Z,100677.97
